Time;durP1;ratioP1;P1;durP2;ratioP2;P2;SDS_P1;SDS_P2;PMS_P1;PMS_P2;Temp;Humidity;BMP_temperature;BMP_pressure;BME280_temperature;BME280_humidity;BME280_pressure;Samples;Min_cycle;Max_cycle;Signal;HPM_P1;HPM_P2
2022/01/17 00:00:59;;;;;;;195.38;63.03;;;7.20;99.90;;;;;;5054262;28;20477;-80
2022/01/17 00:03:27;;;;;;;215.95;69.05;;;7.20;99.90;;;;;;5055490;28;20024;-80
2022/01/17 00:05:55;;;;;;;197.98;62.85;;;7.20;99.90;;;;;;5054595;28;20037;-80
2022/01/17 00:08:22;;;;;;;203.55;68.40;;;7.30;99.90;;;;;;5055310;28;20013;-80
2022/01/17 00:10:50;;;;;;;191.90;64.38;;;7.30;99.90;;;;;;5055073;28;20158;-81
2022/01/17 00:13:25;;;;;;;192.77;65.72;;;7.20;99.90;;;;;;5053816;28;20492;-82
2022/01/17 00:15:59;;;;;;;191.95;64.68;;;7.20;99.90;;;;;;5054032;28;20024;-81
2022/01/17 00:20:50;;;;;;;200.23;65.50;;;7.20;99.90;;;;;;5055358;28;20036;-81
2022/01/17 00:23:18;;;;;;;199.82;68.30;;;7.20;99.90;;;;;;5055076;28;20029;-81
2022/01/17 00:25:44;;;;;;;199.02;66.72;;;7.30;99.90;;;;;;5059336;28;20025;-81
2022/01/17 00:28:10;;;;;;;196.15;64.40;;;7.30;99.90;;;;;;5055947;28;20017;-82
2022/01/17 00:30:37;;;;;;;188.02;61.83;;;7.40;99.90;;;;;;5053395;28;20071;-81
2022/01/17 00:33:06;;;;;;;207.13;69.85;;;7.30;99.90;;;;;;5053554;28;20453;-81
2022/01/17 00:35:31;;;;;;;210.63;67.22;;;7.30;99.90;;;;;;5054450;28;20043;-81
2022/01/17 00:37:57;;;;;;;212.27;69.68;;;7.30;99.90;;;;;;5069778;28;20025;-81
2022/01/17 00:40:26;;;;;;;203.98;67.90;;;7.40;99.90;;;;;;5053755;28;20480;-81
2022/01/17 00:42:52;;;;;;;220.15;68.55;;;7.30;99.90;;;;;;5053586;28;20017;-81
2022/01/17 00:45:24;;;;;;;192.35;70.65;;;7.30;99.90;;;;;;5070059;28;20033;-81
2022/01/17 00:47:57;;;;;;;197.15;67.68;;;7.30;99.90;;;;;;5054772;28;20021;-81
2022/01/17 00:50:28;;;;;;;200.68;69.13;;;7.30;99.90;;;;;;5053286;28;20481;-81
2022/01/17 00:52:56;;;;;;;185.23;69.32;;;7.30;99.90;;;;;;5061386;28;20082;-81
2022/01/17 00:55:22;;;;;;;207.60;70.22;;;7.40;99.90;;;;;;5072991;28;20496;-80
2022/01/17 00:57:51;;;;;;;203.27;80.78;;;7.40;99.90;;;;;;5054855;28;20017;-80
2022/01/17 01:00:16;;;;;;;185.95;65.93;;;7.30;99.90;;;;;;5053306;28;20032;-80
2022/01/17 01:02:42;;;;;;;189.93;67.28;;;7.40;99.90;;;;;;5054346;28;20025;-81
2022/01/17 01:05:11;;;;;;;187.82;68.30;;;7.40;99.90;;;;;;5052816;28;20029;-81
2022/01/17 01:07:40;;;;;;;189.82;67.65;;;7.40;99.90;;;;;;5052831;28;20646;-81
2022/01/17 01:10:10;;;;;;;186.95;69.25;;;7.50;99.90;;;;;;5054176;28;20507;-81
2022/01/17 01:12:42;;;;;;;197.75;71.90;;;7.40;99.90;;;;;;5053083;28;20017;-80
2022/01/17 01:15:14;;;;;;;185.38;64.47;;;7.50;99.90;;;;;;5052667;28;20029;-80
2022/01/17 01:17:55;;;;;;;184.77;65.18;;;7.40;99.90;;;;;;5052813;28;20021;-80
2022/01/17 01:20:57;;;;;;;185.05;67.25;;;7.40;99.90;;;;;;5052822;28;20473;-80
2022/01/17 01:28:50;;;;;;;174.60;61.50;;;7.30;99.90;;;;;;5054083;28;20032;-81
2022/01/17 01:31:27;;;;;;;170.60;63.35;;;7.40;99.90;;;;;;5069157;28;20116;-80
2022/01/17 01:33:56;;;;;;;183.25;68.47;;;7.40;99.90;;;;;;5069231;28;20021;-80
2022/01/17 01:36:27;;;;;;;174.35;63.25;;;7.30;99.90;;;;;;5053633;28;20074;-80
2022/01/17 01:38:59;;;;;;;169.68;64.70;;;7.40;99.90;;;;;;5053634;28;20040;-80
2022/01/17 01:41:27;;;;;;;176.65;65.20;;;7.40;99.90;;;;;;5053512;28;20032;-80
2022/01/17 01:43:53;;;;;;;173.15;67.72;;;7.40;99.90;;;;;;5052252;28;20107;-81
2022/01/17 01:46:25;;;;;;;172.68;65.38;;;7.40;99.90;;;;;;5053700;28;20037;-81
2022/01/17 01:48:53;;;;;;;171.30;61.30;;;7.40;99.90;;;;;;5051996;28;20382;-81
2022/01/17 01:51:22;;;;;;;178.38;63.78;;;7.50;99.90;;;;;;5052148;28;20462;-80
2022/01/17 01:53:54;;;;;;;177.18;65.00;;;7.40;99.90;;;;;;5053583;28;20032;-80
2022/01/17 01:56:23;;;;;;;151.30;59.42;;;7.40;99.90;;;;;;5053172;28;20025;-80
2022/01/17 01:58:51;;;;;;;181.05;66.78;;;7.40;99.90;;;;;;5053331;28;20504;-80
2022/01/17 02:01:17;;;;;;;181.85;63.95;;;7.40;99.90;;;;;;5068307;28;20021;-81
2022/01/17 02:03:46;;;;;;;174.80;63.97;;;7.40;99.90;;;;;;5052023;28;20037;-81
2022/01/17 02:06:15;;;;;;;185.55;66.43;;;7.50;99.90;;;;;;5051918;28;20025;-81
2022/01/17 02:08:48;;;;;;;166.40;63.22;;;7.50;99.90;;;;;;5052025;28;20028;-80
2022/01/17 02:11:14;;;;;;;169.77;66.03;;;7.50;99.90;;;;;;5053132;28;20112;-81
2022/01/17 02:13:40;;;;;;;175.48;62.17;;;7.50;99.90;;;;;;5053365;28;20501;-80
2022/01/17 02:16:14;;;;;;;183.18;64.78;;;7.50;99.90;;;;;;5051906;28;20108;-80
2022/01/17 02:18:46;;;;;;;187.65;64.10;;;7.50;99.90;;;;;;5053207;28;20027;-80
2022/01/17 02:23:45;;;;;;;155.70;58.40;;;7.50;99.90;;;;;;5033565;28;20113;-81
2022/01/17 02:26:14;;;;;;;165.82;60.30;;;7.50;99.90;;;;;;5033210;28;20014;-81
2022/01/17 02:28:48;;;;;;;174.85;64.03;;;7.50;99.90;;;;;;5033271;28;20104;-80
2022/01/17 02:31:18;;;;;;;165.70;58.35;;;7.50;99.90;;;;;;5051220;28;20625;-80
2022/01/17 02:33:50;;;;;;;168.07;58.03;;;7.40;99.90;;;;;;5053453;28;20029;-82
2022/01/17 02:36:22;;;;;;;165.40;60.23;;;7.50;99.90;;;;;;5051935;28;20029;-80
2022/01/17 02:38:50;;;;;;;172.85;62.72;;;7.50;99.90;;;;;;5052675;28;20311;-81
2022/01/17 02:41:16;;;;;;;169.95;62.60;;;7.50;99.90;;;;;;5067862;28;20120;-80
2022/01/17 02:43:47;;;;;;;160.10;57.05;;;7.50;99.90;;;;;;5052139;28;20043;-80
2022/01/17 02:48:39;;;;;;;170.48;59.28;;;7.50;99.90;;;;;;5052891;28;20029;-81
2022/01/17 02:51:06;;;;;;;164.30;61.45;;;7.50;99.90;;;;;;5058511;28;20025;-80
2022/01/17 02:53:32;;;;;;;159.50;56.08;;;7.50;99.90;;;;;;5053091;28;20469;-80
2022/01/17 02:56:06;;;;;;;172.18;61.50;;;7.40;99.90;;;;;;5051725;28;20021;-81
2022/01/17 02:58:34;;;;;;;152.55;56.67;;;7.40;99.90;;;;;;5051682;28;20021;-80
2022/01/17 03:01:13;;;;;;;150.57;58.05;;;7.40;99.90;;;;;;5041298;28;20014;-80
2022/01/17 03:03:41;;;;;;;152.00;55.22;;;7.30;99.90;;;;;;5033173;28;20033;-80
2022/01/17 03:06:11;;;;;;;152.52;55.63;;;7.30;99.90;;;;;;5048299;28;20389;-80
2022/01/17 03:08:43;;;;;;;158.40;56.63;;;7.30;99.90;;;;;;5048952;28;20039;-80
2022/01/17 03:11:16;;;;;;;151.48;58.15;;;7.30;99.90;;;;;;5051278;28;20099;-80
2022/01/17 03:13:47;;;;;;;143.25;54.40;;;7.20;99.90;;;;;;5052946;28;20021;-80
2022/01/17 03:16:18;;;;;;;130.82;49.55;;;7.20;99.90;;;;;;5055253;28;20025;-80
2022/01/17 03:18:51;;;;;;;120.55;48.22;;;7.20;99.90;;;;;;5054937;28;20025;-80
2022/01/17 03:21:19;;;;;;;136.10;54.10;;;7.20;99.90;;;;;;5041089;28;20021;-80
2022/01/17 03:23:47;;;;;;;134.10;51.83;;;7.20;99.90;;;;;;5035057;28;20026;-80
2022/01/17 03:26:16;;;;;;;129.20;50.85;;;7.20;99.90;;;;;;5045036;28;20029;-80
2022/01/17 03:28:45;;;;;;;145.82;55.15;;;7.20;99.90;;;;;;5054977;28;20086;-80
2022/01/17 03:31:11;;;;;;;166.52;76.82;;;7.20;99.90;;;;;;5056143;28;20017;-81
2022/01/17 03:33:38;;;;;;;120.85;50.90;;;7.10;99.90;;;;;;5056573;28;20369;-81
2022/01/17 03:36:05;;;;;;;123.18;47.65;;;7.10;99.90;;;;;;5054879;28;20497;-80
2022/01/17 03:38:33;;;;;;;123.05;49.58;;;7.10;99.90;;;;;;5055666;28;20023;-81
2022/01/17 03:41:04;;;;;;;121.20;48.63;;;7.10;99.90;;;;;;5055824;28;20029;-81
2022/01/17 03:43:31;;;;;;;133.05;50.45;;;7.10;99.90;;;;;;5055867;28;20135;-82
2022/01/17 03:46:00;;;;;;;131.77;49.78;;;7.10;99.90;;;;;;5054548;28;20071;-81
2022/01/17 03:48:28;;;;;;;132.32;50.35;;;7.10;99.90;;;;;;5055658;28;20108;-80
2022/01/17 03:50:55;;;;;;;111.80;48.40;;;7.00;99.90;;;;;;5055722;28;20028;-81
2022/01/17 03:53:22;;;;;;;127.70;49.65;;;7.00;99.90;;;;;;5055551;28;20108;-80
2022/01/17 03:55:48;;;;;;;117.10;49.63;;;7.00;99.90;;;;;;5053919;28;20032;-80
2022/01/17 03:58:17;;;;;;;122.40;48.00;;;7.00;99.90;;;;;;5055291;28;20474;-80
2022/01/17 04:00:49;;;;;;;111.13;46.03;;;7.00;99.90;;;;;;5050484;28;20014;-81
2022/01/17 04:03:15;;;;;;;119.75;46.65;;;7.00;99.90;;;;;;5036209;28;20076;-81
2022/01/17 04:05:41;;;;;;;122.88;47.88;;;7.00;99.90;;;;;;5038097;28;20079;-80
2022/01/17 04:08:10;;;;;;;106.43;43.40;;;7.00;99.90;;;;;;5074324;28;20028;-80
2022/01/17 04:10:39;;;;;;;102.07;43.70;;;7.00;99.90;;;;;;5075386;28;20063;-80
2022/01/17 04:13:08;;;;;;;107.18;42.08;;;7.00;99.90;;;;;;5075272;28;20021;-80
2022/01/17 04:15:37;;;;;;;120.80;47.22;;;7.00;99.90;;;;;;5073852;28;20637;-80
2022/01/17 04:18:07;;;;;;;111.53;48.00;;;7.00;99.90;;;;;;5075360;28;20424;-80
2022/01/17 04:20:40;;;;;;;109.75;46.95;;;7.00;99.90;;;;;;5075303;28;20029;-81
2022/01/17 04:23:11;;;;;;;116.68;47.30;;;7.00;99.90;;;;;;5073933;28;20477;-81
2022/01/17 04:25:44;;;;;;;121.95;49.15;;;7.00;99.90;;;;;;5073515;28;20119;-81
2022/01/17 04:28:15;;;;;;;;;;;7.00;99.90;;;;;;5035668;28;20032;-79
2022/01/17 04:30:44;;;;;;;114.90;50.53;;;7.00;99.90;;;;;;5033523;28;19909;-81
2022/01/17 04:33:13;;;;;;;112.30;46.17;;;7.10;99.90;;;;;;5033911;28;20540;-81
2022/01/17 04:35:41;;;;;;;119.50;49.75;;;7.10;99.90;;;;;;5042231;28;20021;-80
2022/01/17 04:38:13;;;;;;;102.70;45.05;;;7.10;99.90;;;;;;5053713;28;20104;-80
2022/01/17 04:40:40;;;;;;;128.35;50.40;;;7.10;99.90;;;;;;5054948;28;20025;-80
2022/01/17 04:43:17;;;;;;;126.47;57.65;;;7.10;99.90;;;;;;5053497;28;20037;-80
2022/01/17 04:45:43;;;;;;;125.38;50.33;;;7.10;99.90;;;;;;5053275;28;20028;-81
2022/01/17 04:48:10;;;;;;;123.13;45.70;;;7.10;99.90;;;;;;5054705;28;20025;-80
2022/01/17 04:50:37;;;;;;;118.57;48.50;;;7.10;99.90;;;;;;5070043;28;20032;-80
2022/01/17 04:53:03;;;;;;;114.28;45.28;;;7.10;99.90;;;;;;5053401;28;20098;-80
2022/01/17 04:55:30;;;;;;;116.88;47.88;;;7.10;99.90;;;;;;5067423;28;20048;-80
2022/01/17 04:57:57;;;;;;;113.75;49.40;;;7.10;99.90;;;;;;5066164;28;20029;-80
2022/01/17 05:00:24;;;;;;;116.70;49.10;;;7.10;99.90;;;;;;5053088;28;20025;-80
2022/01/17 05:02:50;;;;;;;118.85;47.45;;;7.10;99.90;;;;;;5069782;28;20039;-80
2022/01/17 05:05:20;;;;;;;116.22;47.88;;;7.10;99.90;;;;;;5044581;28;20030;-80
2022/01/17 05:07:49;;;;;;;112.38;47.95;;;7.10;99.90;;;;;;5033133;28;20029;-81
2022/01/17 05:10:20;;;;;;;119.07;49.75;;;7.10;99.90;;;;;;5033114;28;20021;-80
2022/01/17 05:12:49;;;;;;;124.78;52.15;;;7.10;99.90;;;;;;5045878;28;20048;-80
2022/01/17 05:15:28;;;;;;;118.75;50.00;;;7.00;99.90;;;;;;5052678;28;20025;-80
2022/01/17 05:20:26;;;;;;;119.60;48.87;;;7.00;99.90;;;;;;5057412;28;20029;-80
2022/01/17 05:22:52;;;;;;;116.80;47.20;;;7.00;99.90;;;;;;5052688;28;20474;-80
2022/01/17 05:25:20;;;;;;;123.95;50.28;;;6.90;99.90;;;;;;5052750;28;20115;-79
2022/01/17 05:27:46;;;;;;;125.95;51.15;;;6.90;99.90;;;;;;5052529;28;20025;-80
2022/01/17 05:30:20;;;;;;;126.82;49.72;;;7.00;99.90;;;;;;5052647;28;20025;-80
2022/01/17 05:32:47;;;;;;;129.85;49.67;;;6.90;99.90;;;;;;5052725;28;20024;-81
2022/01/17 05:35:16;;;;;;;121.32;50.53;;;7.00;99.90;;;;;;5052510;28;20013;-80
2022/01/17 05:37:57;;;;;;;130.90;50.78;;;7.00;99.90;;;;;;5053233;28;20028;-80
2022/01/17 05:40:26;;;;;;;130.75;50.97;;;7.00;99.90;;;;;;5053876;28;20062;-80
2022/01/17 05:42:52;;;;;;;136.73;52.72;;;7.00;99.90;;;;;;5052199;28;20032;-80
2022/01/17 05:45:20;;;;;;;148.02;54.72;;;7.00;99.90;;;;;;5053657;28;20029;-81
2022/01/17 05:47:49;;;;;;;128.43;48.97;;;7.00;99.90;;;;;;5052462;28;20119;-80
2022/01/17 05:50:18;;;;;;;124.30;48.83;;;7.00;99.90;;;;;;5053566;28;20056;-80
2022/01/17 05:52:50;;;;;;;130.10;49.35;;;6.90;99.90;;;;;;5049704;28;20125;-80
2022/01/17 05:55:18;;;;;;;135.90;51.65;;;6.90;99.90;;;;;;5034789;28;20083;-80
2022/01/17 05:57:47;;;;;;;128.40;51.60;;;7.00;99.90;;;;;;5051963;28;20028;-80
2022/01/17 06:00:18;;;;;;;122.75;51.10;;;6.90;99.90;;;;;;5053348;28;20024;-80
2022/01/17 06:02:48;;;;;;;147.43;50.35;;;6.90;99.90;;;;;;5052003;28;20551;-81
2022/01/17 06:05:15;;;;;;;129.88;52.15;;;6.80;99.90;;;;;;5053324;28;20033;-80
2022/01/17 06:07:42;;;;;;;140.65;51.53;;;6.90;99.90;;;;;;5053257;28;20056;-80
2022/01/17 06:10:11;;;;;;;124.43;49.33;;;6.90;99.90;;;;;;5051922;28;20021;-80
2022/01/17 06:12:37;;;;;;;125.95;51.25;;;6.90;99.90;;;;;;5048274;28;20083;-80
2022/01/17 06:15:10;;;;;;;134.10;51.85;;;6.90;99.90;;;;;;5033381;28;20422;-80
2022/01/17 06:17:36;;;;;;;140.40;53.75;;;6.90;99.90;;;;;;5048677;28;20032;-81
2022/01/17 06:20:05;;;;;;;138.40;51.88;;;6.90;99.90;;;;;;5048668;28;20076;-81
2022/01/17 06:22:33;;;;;;;131.65;51.22;;;6.90;99.90;;;;;;5033060;28;20029;-81
2022/01/17 06:25:01;;;;;;;140.40;51.45;;;6.90;99.90;;;;;;5033203;28;20108;-80
2022/01/17 06:27:28;;;;;;;133.63;52.70;;;6.90;99.90;;;;;;5045863;28;20017;-79
2022/01/17 06:29:54;;;;;;;142.32;53.58;;;6.80;99.90;;;;;;5053197;28;20067;-79
2022/01/17 06:32:23;;;;;;;140.75;50.30;;;6.80;99.90;;;;;;5052942;28;20057;-79
2022/01/17 06:34:51;;;;;;;138.68;54.22;;;6.80;99.90;;;;;;5053124;28;20401;-80
2022/01/17 06:37:20;;;;;;;135.98;54.53;;;6.70;99.90;;;;;;5051754;28;20025;-80
2022/01/17 06:39:47;;;;;;;131.00;50.40;;;6.80;99.90;;;;;;5052882;28;20025;-79
2022/01/17 06:42:12;;;;;;;117.20;48.20;;;6.80;99.90;;;;;;5052658;28;20056;-79
2022/01/17 06:44:38;;;;;;;128.18;50.00;;;6.70;99.90;;;;;;5051613;28;20025;-80
2022/01/17 06:47:04;;;;;;;130.20;51.33;;;6.60;99.90;;;;;;5051554;28;20115;-79
2022/01/17 06:49:29;;;;;;;144.70;54.28;;;6.50;99.90;;;;;;5034897;28;20037;-80
2022/01/17 06:51:58;;;;;;;140.57;52.35;;;6.60;99.90;;;;;;5036998;28;20110;-80
2022/01/17 06:54:30;;;;;;;158.98;55.05;;;6.60;99.90;;;;;;5036989;28;20036;-80
2022/01/17 06:56:58;;;;;;;156.93;55.83;;;6.50;99.90;;;;;;5051074;28;20021;-80
2022/01/17 06:59:25;;;;;;;167.20;57.22;;;6.50;99.90;;;;;;5056787;28;20033;-80
2022/01/17 07:01:54;;;;;;;167.00;58.67;;;6.50;99.90;;;;;;5056718;28;20449;-80
2022/01/17 07:04:19;;;;;;;170.65;60.08;;;6.50;99.90;;;;;;5055514;28;20029;-80
2022/01/17 07:06:47;;;;;;;179.20;60.10;;;6.60;99.90;;;;;;5056648;28;20036;-80
2022/01/17 07:09:16;;;;;;;184.82;62.60;;;6.60;99.90;;;;;;5054879;28;20466;-80
2022/01/17 07:11:45;;;;;;;189.93;61.28;;;6.50;99.90;;;;;;5055170;28;20572;-79
2022/01/17 07:14:12;;;;;;;189.88;67.00;;;6.60;99.90;;;;;;5055293;28;20021;-80
2022/01/17 07:16:39;;;;;;;186.07;64.18;;;6.60;99.90;;;;;;5056190;28;20021;-79
2022/01/17 07:19:05;;;;;;;181.95;64.50;;;6.60;99.90;;;;;;5056291;28;20032;-80
2022/01/17 07:21:35;;;;;;;194.40;65.55;;;6.70;99.90;;;;;;5056324;28;20025;-80
2022/01/17 07:24:03;;;;;;;189.63;70.28;;;6.80;99.90;;;;;;5054948;28;20033;-79
2022/01/17 07:26:31;;;;;;;184.00;64.03;;;6.80;99.90;;;;;;5055180;28;20065;-80
2022/01/17 07:28:57;;;;;;;188.63;63.55;;;6.80;99.90;;;;;;5055872;28;20021;-81
2022/01/17 07:31:23;;;;;;;181.65;65.30;;;6.80;99.90;;;;;;5055922;28;20029;-80
2022/01/17 07:33:49;;;;;;;187.80;67.30;;;6.90;99.90;;;;;;5054989;28;20024;-80
2022/01/17 07:36:20;;;;;;;188.63;66.43;;;6.90;99.90;;;;;;5054947;28;20123;-80
2022/01/17 07:38:47;;;;;;;197.00;68.72;;;7.00;99.90;;;;;;5055691;28;20024;-80
2022/01/17 07:41:14;;;;;;;195.45;69.03;;;7.00;99.90;;;;;;5055953;28;20108;-80
2022/01/17 07:43:47;;;;;;;181.32;69.50;;;6.90;99.90;;;;;;5055987;28;20028;-80
2022/01/17 07:46:25;;;;;;;187.40;65.13;;;7.00;99.90;;;;;;5057108;28;20033;-81
2022/01/17 07:48:59;;;;;;;156.43;60.05;;;7.00;99.90;;;;;;5064711;28;20024;-79
2022/01/17 07:51:27;;;;;;;158.85;57.65;;;7.00;99.90;;;;;;5075195;28;20036;-79
2022/01/17 07:53:56;;;;;;;150.68;58.17;;;7.00;99.90;;;;;;5061224;28;20442;-80
2022/01/17 07:56:23;;;;;;;152.60;57.65;;;7.00;99.90;;;;;;5055691;28;20033;-79
2022/01/17 07:58:52;;;;;;;159.95;62.08;;;7.00;99.90;;;;;;5055446;28;20017;-80
2022/01/17 08:01:19;;;;;;;158.73;58.97;;;7.20;99.90;;;;;;5054427;28;20035;-80
2022/01/17 08:03:48;;;;;;;145.88;57.55;;;7.20;99.90;;;;;;5054235;28;20060;-80
2022/01/17 08:06:16;;;;;;;153.80;58.88;;;7.20;99.90;;;;;;5054224;28;20112;-80
2022/01/17 08:08:47;;;;;;;147.02;53.90;;;7.20;99.90;;;;;;5053884;28;20017;-80
2022/01/17 08:11:16;;;;;;;155.60;58.03;;;7.20;99.90;;;;;;5053907;28;20021;-80
2022/01/17 08:13:47;;;;;;;152.65;56.72;;;7.10;99.90;;;;;;5053960;28;20021;-80
2022/01/17 08:16:15;;;;;;;144.13;54.43;;;7.20;99.90;;;;;;5048846;28;20182;-80
2022/01/17 08:18:46;;;;;;;166.45;59.83;;;7.10;99.90;;;;;;5036104;28;20528;-80
2022/01/17 08:21:12;;;;;;;147.45;55.28;;;7.10;99.90;;;;;;5043930;28;20473;-79
2022/01/17 08:23:39;;;;;;;160.02;60.00;;;7.10;99.90;;;;;;5049953;28;20029;-80
2022/01/17 08:26:06;;;;;;;147.52;58.42;;;7.10;99.90;;;;;;5035042;28;20049;-80
2022/01/17 08:28:32;;;;;;;143.35;57.33;;;7.10;99.90;;;;;;5035031;28;20029;-80
2022/01/17 08:30:57;;;;;;;137.25;53.25;;;7.10;99.90;;;;;;5046914;28;20033;-80
2022/01/17 08:33:26;;;;;;;150.75;60.10;;;7.00;99.90;;;;;;5062726;28;20039;-80
2022/01/17 08:35:54;;;;;;;151.65;60.00;;;7.10;99.90;;;;;;5053334;28;20082;-80
2022/01/17 08:38:19;;;;;;;143.63;57.28;;;7.10;99.90;;;;;;5035336;28;20053;-80
2022/01/17 08:40:53;;;;;;;140.43;58.45;;;7.20;99.90;;;;;;5034885;28;20099;-80
2022/01/17 08:43:19;;;;;;;147.30;59.17;;;7.20;99.90;;;;;;5050536;28;20142;-80
2022/01/17 08:45:48;;;;;;;126.85;56.05;;;7.20;99.90;;;;;;5052394;28;20517;-80
2022/01/17 08:48:13;;;;;;;124.95;53.17;;;7.20;99.90;;;;;;5042692;28;20060;-79
2022/01/17 08:50:43;;;;;;;127.55;55.85;;;7.30;99.90;;;;;;5049752;28;20470;-80
2022/01/17 08:53:13;;;;;;;117.95;51.58;;;7.40;99.90;;;;;;5054338;28;20402;-80
2022/01/17 08:55:39;;;;;;;114.07;49.90;;;7.30;99.90;;;;;;5044557;28;20545;-80
2022/01/17 08:58:09;;;;;;;110.68;47.80;;;7.30;99.90;;;;;;5042878;28;20034;-80
2022/01/17 09:00:36;;;;;;;121.28;49.22;;;7.40;99.90;;;;;;5038682;28;20037;-80
2022/01/17 09:03:05;;;;;;;109.72;47.08;;;7.40;99.90;;;;;;5060711;28;20043;-80
2022/01/17 09:05:33;;;;;;;96.13;43.67;;;7.40;99.90;;;;;;5067026;28;20033;-80
2022/01/17 09:08:03;;;;;;;104.97;45.67;;;7.30;99.90;;;;;;5050227;28;20104;-80
2022/01/17 09:10:30;;;;;;;97.97;48.30;;;7.40;99.90;;;;;;5053961;28;20496;-80
2022/01/17 09:12:57;;;;;;;90.20;42.80;;;7.50;99.90;;;;;;5048889;28;20029;-80
2022/01/17 09:15:23;;;;;;;80.22;40.38;;;7.60;99.90;;;;;;5057146;28;20017;-80
2022/01/17 09:17:50;;;;;;;85.90;40.83;;;7.60;99.90;;;;;;5046434;28;20060;-80
2022/01/17 09:20:22;;;;;;;74.20;35.33;;;7.70;99.90;;;;;;5039712;28;20025;-80
2022/01/17 09:22:47;;;;;;;69.30;34.60;;;7.70;99.90;;;;;;5044722;28;20032;-79
2022/01/17 09:25:19;;;;;;;72.28;33.33;;;7.70;99.90;;;;;;5054021;28;20025;-80
2022/01/17 09:27:48;;;;;;;65.20;32.20;;;7.80;99.90;;;;;;5053940;28;20028;-80
2022/01/17 09:30:15;;;;;;;69.38;32.80;;;7.70;99.90;;;;;;5048001;28;20083;-79
2022/01/17 09:32:40;;;;;;;74.20;35.28;;;7.80;99.90;;;;;;5040782;28;20036;-79
2022/01/17 09:35:09;;;;;;;69.63;34.65;;;7.80;99.90;;;;;;5053557;28;20017;-80
2022/01/17 09:37:41;;;;;;;60.85;30.27;;;7.80;99.90;;;;;;5052386;28;20115;-80
2022/01/17 09:40:13;;;;;;;;;;;7.80;99.90;;;;;;5054346;28;20032;-78
2022/01/17 09:42:39;;;;;;;66.10;32.33;;;7.70;99.90;;;;;;5052475;28;19905;-80
2022/01/17 09:45:10;;;;;;;74.97;33.42;;;7.80;99.90;;;;;;5053833;28;20025;-80
2022/01/17 09:47:37;;;;;;;60.83;30.85;;;7.80;99.90;;;;;;5051934;28;20041;-80
2022/01/17 09:50:08;;;;;;;67.57;31.65;;;7.80;99.90;;;;;;5052114;28;20070;-80
2022/01/17 09:52:46;;;;;;;60.45;29.45;;;7.80;99.90;;;;;;5053553;28;20104;-80
2022/01/17 09:55:15;;;;;;;73.35;29.45;;;7.80;99.90;;;;;;5035845;28;20163;-80
2022/01/17 09:57:53;;;;;;;57.65;28.13;;;7.80;99.90;;;;;;5047485;28;20097;-80
2022/01/17 10:00:26;;;;;;;57.97;26.67;;;7.80;99.90;;;;;;5051861;28;20028;-81
2022/01/17 10:02:53;;;;;;;56.25;27.00;;;7.80;99.90;;;;;;5043761;28;20056;-80
2022/01/17 10:05:19;;;;;;;55.47;27.98;;;7.90;99.90;;;;;;5045060;28;20030;-80
2022/01/17 10:07:54;;;;;;;52.40;25.73;;;7.90;99.90;;;;;;5047485;28;20036;-79
2022/01/17 10:10:58;;;;;;;54.72;25.08;;;8.00;99.90;;;;;;5046995;28;20053;-79
2022/01/17 10:13:45;;;;;;;49.75;26.30;;;8.00;99.90;;;;;;5050159;28;20028;-79
2022/01/17 10:16:18;;;;;;;55.58;25.05;;;8.10;99.90;;;;;;5038664;28;20018;-79
2022/01/17 10:19:00;;;;;;;59.42;24.38;;;8.10;99.90;;;;;;5042202;28;20074;-79
2022/01/17 10:21:28;;;;;;;56.30;23.42;;;8.10;99.90;;;;;;5031893;28;20037;-79
2022/01/17 10:35:23;;;;;;;48.38;21.20;;;8.20;99.90;;;;;;5033387;28;20075;-79
2022/01/17 10:38:09;;;;;;;43.83;21.15;;;8.20;99.90;;;;;;5039792;28;20020;-79
2022/01/17 10:40:42;;;;;;;52.20;24.27;;;8.20;99.90;;;;;;5031541;28;20029;-79
2022/01/17 10:43:25;;;;;;;50.03;22.58;;;8.20;99.90;;;;;;5035385;28;20034;-80
2022/01/17 10:45:53;;;;;;;53.20;24.33;;;8.20;99.90;;;;;;5037707;28;20030;-79
2022/01/17 10:48:19;;;;;;;46.63;22.90;;;8.20;99.90;;;;;;5031519;28;20037;-79
2022/01/17 10:50:50;;;;;;;53.05;23.05;;;8.30;99.90;;;;;;5057206;28;20029;-79
2022/01/17 10:53:21;;;;;;;45.40;20.27;;;8.40;99.90;;;;;;5041378;28;20021;-79
2022/01/17 10:55:54;;;;;;;49.45;20.52;;;8.30;99.90;;;;;;5038030;28;20104;-79
2022/01/17 10:58:25;;;;;;;45.63;22.38;;;8.30;99.90;;;;;;5048201;28;20018;-79
2022/01/17 11:00:54;;;;;;;53.88;20.17;;;8.30;99.90;;;;;;5048200;28;20121;-79
2022/01/17 11:03:27;;;;;;;44.58;20.42;;;8.30;99.90;;;;;;5032538;28;20524;-79
2022/01/17 11:05:56;;;;;;;46.50;21.45;;;8.30;99.90;;;;;;5041621;28;20029;-79
2022/01/17 11:08:29;;;;;;;49.33;18.40;;;8.30;99.90;;;;;;5044375;28;20049;-79
2022/01/17 11:10:59;;;;;;;38.15;17.35;;;8.40;99.90;;;;;;5032582;28;20030;-79
2022/01/17 11:13:30;;;;;;;42.03;16.30;;;8.40;99.90;;;;;;5033040;28;20428;-79
2022/01/17 11:16:21;;;;;;;33.38;15.48;;;8.40;99.90;;;;;;5034772;28;20478;-79
2022/01/17 11:19:10;;;;;;;34.75;14.48;;;8.40;99.90;;;;;;5044423;28;20020;-79
2022/01/17 11:21:37;;;;;;;36.58;15.02;;;8.40;99.90;;;;;;5040161;28;20420;-79
2022/01/17 11:24:04;;;;;;;39.03;14.43;;;8.50;99.90;;;;;;5035614;28;20035;-79
2022/01/17 11:26:33;;;;;;;44.42;13.93;;;8.50;99.90;;;;;;5035979;28;20556;-79
2022/01/17 11:28:59;;;;;;;31.05;12.32;;;8.50;99.90;;;;;;5042578;28;20470;-79
2022/01/17 11:31:26;;;;;;;34.42;12.82;;;8.40;99.90;;;;;;5031172;28;20040;-79
2022/01/17 11:33:53;;;;;;;38.95;12.38;;;8.50;99.90;;;;;;5039309;28;20031;-79
2022/01/17 11:36:20;;;;;;;29.40;12.27;;;8.60;99.90;;;;;;5070434;28;20048;-79
2022/01/17 11:38:55;;;;;;;36.70;12.18;;;8.60;99.90;;;;;;5055635;28;20028;-79
2022/01/17 11:41:21;;;;;;;29.48;12.00;;;8.60;99.90;;;;;;5054441;28;20021;-79
2022/01/17 11:43:58;;;;;;;35.97;11.00;;;8.50;99.90;;;;;;5051462;28;20436;-78
2022/01/17 11:46:27;;;;;;;34.75;10.55;;;8.50;99.90;;;;;;5053599;28;20021;-78
2022/01/17 11:49:09;;;;;;;29.98;10.38;;;8.60;99.90;;;;;;5057403;28;20113;-79
2022/01/17 11:51:46;;;;;;;30.65;10.10;;;8.60;99.90;;;;;;5051433;28;20083;-78
2022/01/17 11:54:29;;;;;;;29.63;9.52;;;8.60;99.90;;;;;;5054477;28;20033;-78
2022/01/17 11:57:06;;;;;;;33.58;9.95;;;8.70;99.90;;;;;;5046072;28;20034;-78
2022/01/17 11:59:48;;;;;;;27.17;8.95;;;8.70;99.90;;;;;;5067677;28;20044;-79
2022/01/17 12:02:25;;;;;;;37.03;9.85;;;8.70;99.90;;;;;;5056161;28;20116;-78
2022/01/17 12:05:11;;;;;;;33.97;9.77;;;8.80;99.90;;;;;;5035544;28;20033;-78
2022/01/17 12:07:40;;;;;;;25.08;9.30;;;8.70;99.90;;;;;;5035486;28;20079;-78
2022/01/17 12:10:16;;;;;;;30.20;9.13;;;8.70;99.90;;;;;;5056820;28;20057;-78
2022/01/17 12:13:03;;;;;;;31.33;9.45;;;8.70;99.90;;;;;;5043283;28;20604;-78
2022/01/17 12:15:43;;;;;;;28.80;9.85;;;8.60;99.90;;;;;;5043097;28;20029;-78
2022/01/17 12:18:28;;;;;;;27.02;9.15;;;8.70;99.90;;;;;;5038539;28;20025;-78
2022/01/17 12:21:15;;;;;;;33.60;9.98;;;8.70;99.90;;;;;;5035417;28;20091;-78
2022/01/17 12:23:47;;;;;;;26.92;9.15;;;8.70;99.90;;;;;;5035676;28;20120;-78
2022/01/17 12:26:34;;;;;;;28.17;9.93;;;8.70;99.90;;;;;;5035285;28;20033;-78
2022/01/17 12:29:03;;;;;;;29.58;10.43;;;8.70;99.90;;;;;;5033943;28;20448;-78
2022/01/17 12:31:47;;;;;;;27.70;9.27;;;8.70;99.90;;;;;;5053175;28;20036;-78
2022/01/17 12:34:26;;;;;;;34.00;9.93;;;8.70;99.90;;;;;;5036863;28;20109;-79
2022/01/17 12:36:56;;;;;;;26.33;8.88;;;8.80;99.90;;;;;;5033771;28;20108;-79
2022/01/17 12:39:28;;;;;;;35.03;10.75;;;8.90;99.90;;;;;;5048463;28;20022;-79
2022/01/17 12:42:02;;;;;;;30.05;8.88;;;8.80;99.90;;;;;;5053140;28;20186;-77
2022/01/17 12:44:31;;;;;;;39.42;9.85;;;8.80;99.90;;;;;;5061632;28;20022;-77
2022/01/17 12:46:59;;;;;;;32.08;9.38;;;8.80;99.90;;;;;;5045913;28;20076;-77
2022/01/17 12:49:25;;;;;;;35.28;9.88;;;8.80;99.90;;;;;;5065873;28;20179;-77
2022/01/17 12:51:53;;;;;;;35.45;9.60;;;8.90;99.90;;;;;;5053511;28;20059;-78
2022/01/17 12:54:25;;;;;;;33.20;9.32;;;8.90;99.90;;;;;;5046005;28;20033;-78
2022/01/17 12:56:55;;;;;;;24.25;9.10;;;8.90;99.90;;;;;;5040712;28;20103;-78
2022/01/17 12:59:23;;;;;;;28.70;9.48;;;9.00;99.90;;;;;;5034379;28;20021;-78
2022/01/17 13:01:57;;;;;;;36.03;9.77;;;9.10;99.90;;;;;;5034633;28;20021;-77
2022/01/17 13:04:24;;;;;;;32.20;8.73;;;9.00;99.90;;;;;;5051519;28;20029;-77
2022/01/17 13:06:52;;;;;;;34.30;8.40;;;9.10;99.90;;;;;;5054193;28;20116;-77
2022/01/17 13:09:21;;;;;;;28.52;8.90;;;9.10;99.90;;;;;;5054967;28;20056;-77
2022/01/17 13:11:49;;;;;;;31.02;8.80;;;9.10;99.90;;;;;;5052795;28;20013;-78